Time;durP1;ratioP1;P1;durP2;ratioP2;P2;SDS_P1;SDS_P2;PMS_P1;PMS_P2;Temp;Humidity;BMP_temperature;BMP_pressure;BME280_temperature;BME280_humidity;BME280_pressure;Samples;Min_cycle;Max_cycle;Signal;HPM_P1;HPM_P2
2022/03/29 00:00:22;;;;;;;;;;;;;;;22.32;35.42;95357.38;2055169;28;1780;-70
2022/03/29 00:01:24;;;;;;;;;;;;;;;22.31;35.69;95357.59;2048398;28;1538;-70
2022/03/29 00:02:25;;;;;;;;;;;;;;;22.32;36.08;95359.25;2047724;28;1696;-66
2022/03/29 00:03:27;;;;;;;;;;;;;;;22.32;35.56;95354.69;2050178;28;1701;-70
2022/03/29 00:04:29;;;;;;;;;;;;;;;22.32;35.70;95348.53;2049676;29;1106;-70
2022/03/29 00:05:31;;;;;;;;;;;;;;;22.33;35.76;95347.47;2049575;29;1702;-71
2022/03/29 00:06:32;;;;;;;;;;;;;;;22.30;35.63;95343.38;2050755;28;1113;-70
2022/03/29 00:07:34;;;;;;;;;;;;;;;22.30;35.35;95343.38;2049846;28;1340;-70
2022/03/29 00:08:36;;;;;;;;;;;;;;;22.31;35.86;95341.53;2049180;28;1578;-68
2022/03/29 00:09:38;;;;;;;;;;;;;;;22.31;35.63;95336.19;2050688;29;1212;-71
2022/03/29 00:10:39;;;;;;;;;;;;;;;22.31;35.53;95337.00;2044993;28;1667;-70
2022/03/29 00:11:41;;;;;;;;;;;;;;;22.32;35.65;95335.16;2050004;28;1503;-70
2022/03/29 00:12:42;;;;;;;;;;;;;;;22.30;35.74;95335.34;2049932;28;1500;-71
2022/03/29 00:13:44;;;;;;;;;;;;;;;22.30;35.90;95334.53;2050146;28;1691;-69
2022/03/29 00:14:46;;;;;;;;;;;;;;;22.30;35.66;95334.53;2050420;28;1533;-70
2022/03/29 00:19:05;;;;;;;;;;;;;;;22.30;35.93;95345.22;2049884;28;1104;-71
2022/03/29 00:20:08;;;;;;;;;;;;;;;22.30;35.53;95345.22;2048710;29;1507;-71
2022/03/29 00:21:10;;;;;;;;;;;;;;;22.30;35.67;95339.88;2044782;28;1448;-71
2022/03/29 00:22:12;;;;;;;;;;;;;;;22.30;35.53;95342.56;2050173;28;1100;-67
2022/03/29 00:23:14;;;;;;;;;;;;;;;22.29;35.93;95330.22;2050241;28;1015;-71
2022/03/29 00:24:16;;;;;;;;;;;;;;;22.29;35.62;95331.03;2049130;28;1557;-72
2022/03/29 00:25:18;;;;;;;;;;;;;;;22.29;36.10;95333.72;2050563;28;1087;-72
2022/03/29 00:26:19;;;;;;;;;;;;;;;22.30;36.12;95329.16;2050274;28;1321;-72
2022/03/29 00:27:21;;;;;;;;;;;;;;;22.29;35.86;95330.22;2048958;28;1709;-71
2022/03/29 00:28:23;;;;;;;;;;;;;;;22.30;36.17;95329.16;2050483;29;1063;-71
2022/03/29 00:29:24;;;;;;;;;;;;;;;22.28;35.69;95321.38;2049764;28;1724;-72
2022/03/29 00:30:26;;;;;;;;;;;;;;;22.30;36.34;95323.81;2050372;28;1171;-71
2022/03/29 00:31:28;;;;;;;;;;;;;;;22.28;36.04;95321.38;2050050;28;1626;-71
2022/03/29 00:32:29;;;;;;;;;;;;;;;22.29;35.87;95327.53;2044569;28;1531;-77
2022/03/29 00:33:31;;;;;;;;;;;;;;;22.28;35.82;95321.38;2050620;29;1029;-76
2022/03/29 00:34:34;;;;;;;;;;;;;;;22.28;35.81;95317.84;2048682;29;1494;-75
2022/03/29 00:35:35;;;;;;;;;;;;;;;22.30;35.88;95318.47;2050071;29;1011;-76
2022/03/29 00:36:37;;;;;;;;;;;;;;;22.30;35.90;95311.25;2049985;29;1248;-75
2022/03/29 00:37:40;;;;;;;;;;;;;;;22.31;35.91;95309.41;2049387;29;1985;-73
2022/03/29 00:38:42;;;;;;;;;;;;;;;22.30;36.10;95311.25;2042315;29;1091;-74
2022/03/29 00:39:44;;;;;;;;;;;;;;;22.31;36.01;95306.75;2050053;29;1501;-75
2022/03/29 00:40:46;;;;;;;;;;;;;;;22.32;36.46;95311.06;2049772;29;944;-74
2022/03/29 00:41:47;;;;;;;;;;;;;;;22.30;36.30;95310.44;2048929;29;1659;-73
2022/03/29 00:42:49;;;;;;;;;;;;;;;22.30;35.99;95310.44;2049021;29;1736;-71
2022/03/29 00:43:51;;;;;;;;;;;;;;;22.30;35.72;95313.13;2044945;28;1562;-69
2022/03/29 00:44:53;;;;;;;;;;;;;;;22.30;35.84;95307.75;2050205;28;1641;-69
2022/03/29 00:45:54;;;;;;;;;;;;;;;22.30;35.91;95307.75;2050134;28;1583;-69
2022/03/29 00:46:56;;;;;;;;;;;;;;;22.29;36.04;95304.25;2050238;29;1691;-70
2022/03/29 00:47:58;;;;;;;;;;;;;;;22.31;35.73;95304.06;2050260;28;1520;-69
2022/03/29 00:49:00;;;;;;;;;;;;;;;22.29;35.99;95301.59;2049184;28;1601;-66
2022/03/29 00:50:01;;;;;;;;;;;;;;;22.29;36.09;95301.59;2048765;29;1413;-71
2022/03/29 00:51:03;;;;;;;;;;;;;;;22.28;36.01;95305.31;2049730;29;1083;-71
2022/03/29 00:52:05;;;;;;;;;;;;;;;22.27;36.18;95302.84;2048976;29;1534;-71
2022/03/29 00:53:08;;;;;;;;;;;;;;;22.28;36.14;95301.78;2046172;29;1545;-72
2022/03/29 00:54:11;;;;;;;;;;;;;;;22.29;36.32;95296.22;2045552;29;1229;-72
2022/03/29 00:55:15;;;;;;;;;;;;;;;22.27;36.58;95297.47;2048923;29;1110;-69
2022/03/29 00:56:19;;;;;;;;;;;;;;;22.27;36.23;95298.31;2041969;29;1101;-72
2022/03/29 00:57:21;;;;;;;;;;;;;;;22.28;36.18;95297.28;2044537;29;1999;-72
2022/03/29 00:58:23;;;;;;;;;;;;;;;22.28;36.23;95291.09;2050388;29;1078;-73
2022/03/29 00:59:25;;;;;;;;;;;;;;;22.28;36.03;95291.09;2049125;29;1804;-69
2022/03/29 01:00:27;;;;;;;;;;;;;;;22.28;36.18;95288.41;2042037;29;1707;-72
2022/03/29 01:01:29;;;;;;;;;;;;;;;22.29;36.30;95282.03;2042224;29;981;-73
2022/03/29 01:02:31;;;;;;;;;;;;;;;22.28;36.10;95288.41;2048923;28;1496;-72
2022/03/29 01:03:33;;;;;;;;;;;;;;;22.28;36.11;95283.91;2056743;28;1600;-72
2022/03/29 01:04:34;;;;;;;;;;;;;;;22.29;36.20;95287.38;2049472;29;1543;-71
2022/03/29 01:05:36;;;;;;;;;;;;;;;22.28;36.30;95283.91;2044662;29;1583;-70
2022/03/29 01:06:38;;;;;;;;;;;;;;;22.28;36.53;95288.41;2049744;29;1179;-73
2022/03/29 01:07:41;;;;;;;;;;;;;;;22.27;35.92;95287.59;2049763;29;1449;-73
2022/03/29 01:08:44;;;;;;;;;;;;;;;22.28;36.82;95283.06;2050365;28;1135;-73
2022/03/29 01:09:45;;;;;;;;;;;;;;;22.28;36.49;95285.72;2050105;28;1105;-73
2022/03/29 01:10:48;;;;;;;;;;;;;;;22.27;36.08;95281.41;2049027;28;2093;-73
2022/03/29 01:11:50;;;;;;;;;;;;;;;22.27;36.22;95287.59;2049106;28;1517;-70
2022/03/29 01:12:52;;;;;;;;;;;;;;;22.27;36.49;95284.09;2050014;28;989;-72
2022/03/29 01:13:54;;;;;;;;;;;;;;;22.28;36.57;95285.72;2050221;28;1761;-71
2022/03/29 01:14:56;;;;;;;;;;;;;;;22.28;36.29;95283.06;2050156;28;1184;-72
2022/03/29 01:17:38;;;;;;;;;;;;;;;22.27;36.46;95281.41;2050221;28;1121;-72
2022/03/29 01:18:40;;;;;;;;;;;;;;;22.27;36.75;95271.53;2049657;29;1141;-73
2022/03/29 01:19:43;;;;;;;;;;;;;;;22.26;36.78;95267.22;2049672;29;1008;-73
2022/03/29 01:20:46;;;;;;;;;;;;;;;22.27;36.39;95262.69;2048573;29;1551;-73
2022/03/29 01:21:55;;;;;;;;;;;;;;;22.27;36.84;95260.00;2049709;29;1051;-73
2022/03/29 01:22:57;;;;;;;;;;;;;;;22.27;36.26;95258.16;2048765;29;1631;-72
2022/03/29 01:23:59;;;;;;;;;;;;;;;22.26;36.73;95266.41;2048804;29;1519;-73
2022/03/29 01:25:01;;;;;;;;;;;;;;;22.27;36.63;95257.31;2050279;28;1055;-73
2022/03/29 01:26:02;;;;;;;;;;;;;;;22.26;36.63;95256.50;2049772;28;1094;-73
2022/03/29 01:27:05;;;;;;;;;;;;;;;22.26;36.54;95253.03;2048994;28;1067;-71
2022/03/29 01:28:07;;;;;;;;;;;;;;;22.28;36.38;95258.97;2047693;28;1184;-69
2022/03/29 01:29:09;;;;;;;;;;;;;;;22.26;36.19;95245.00;2048325;29;1652;-71
2022/03/29 01:30:11;;;;;;;;;;;;;;;22.27;36.27;95254.66;2041845;29;1628;-71
2022/03/29 01:31:12;;;;;;;;;;;;;;;22.27;36.78;95251.97;2047812;29;1635;-68
2022/03/29 01:32:14;;;;;;;;;;;;;;;22.28;36.67;95245.56;2042246;29;1012;-72
2022/03/29 01:33:16;;;;;;;;;;;;;;;22.27;36.14;95249.31;2041373;29;1121;-73
2022/03/29 01:34:18;;;;;;;;;;;;;;;22.27;36.38;95243.94;2042206;29;1522;-72
2022/03/29 01:35:21;;;;;;;;;;;;;;;22.27;36.30;95243.94;2041168;29;1140;-72
2022/03/29 01:36:22;;;;;;;;;;;;;;;22.26;36.43;95236.97;2041679;29;1028;-72
2022/03/29 01:37:24;;;;;;;;;;;;;;;22.27;36.57;95241.28;2042163;29;1137;-72
2022/03/29 01:38:26;;;;;;;;;;;;;;;22.26;36.38;95236.97;2047607;28;1899;-72
2022/03/29 01:39:27;;;;;;;;;;;;;;;22.27;36.91;95238.59;2056839;28;1136;-73
2022/03/29 01:40:29;;;;;;;;;;;;;;;22.26;36.80;95232.44;2049034;28;1634;-67
2022/03/29 01:41:30;;;;;;;;;;;;;;;22.27;36.52;95236.72;2041816;29;1129;-70
2022/03/29 01:42:32;;;;;;;;;;;;;;;22.26;36.63;95227.06;2044795;29;1662;-68
2022/03/29 01:43:34;;;;;;;;;;;;;;;22.26;36.88;95232.44;2049020;29;1100;-72
2022/03/29 01:44:35;;;;;;;;;;;;;;;22.28;36.82;95234.88;2041404;29;1649;-70
2022/03/29 01:45:37;;;;;;;;;;;;;;;22.26;36.83;95234.28;2048523;29;1550;-71
2022/03/29 01:46:38;;;;;;;;;;;;;;;22.26;36.93;95226.25;2048385;29;1594;-69
2022/03/29 01:47:41;;;;;;;;;;;;;;;22.27;36.84;95228.69;2048819;29;1531;-72
2022/03/29 01:48:42;;;;;;;;;;;;;;;22.27;36.56;95227.88;2049694;28;1184;-71
2022/03/29 01:49:44;;;;;;;;;;;;;;;22.26;36.92;95224.41;2045125;28;1015;-71
2022/03/29 01:50:46;;;;;;;;;;;;;;;22.26;36.98;95226.25;2048394;28;1547;-71
2022/03/29 01:51:48;;;;;;;;;;;;;;;22.25;37.01;95220.09;2049733;28;1163;-67
2022/03/29 01:52:50;;;;;;;;;;;;;;;22.26;36.90;95220.91;2049046;28;1353;-72
2022/03/29 01:53:53;;;;;;;;;;;;;;;22.26;36.58;95219.03;2049033;28;1590;-72
2022/03/29 01:54:55;;;;;;;;;;;;;;;22.27;37.14;95217.19;2048607;29;1345;-72
2022/03/29 01:55:57;;;;;;;;;;;;;;;22.27;37.06;95225.22;2048875;29;1652;-68
2022/03/29 01:56:58;;;;;;;;;;;;;;;22.26;36.90;95218.22;2048262;29;1413;-73
2022/03/29 01:58:00;;;;;;;;;;;;;;;22.26;36.77;95224.41;2048660;29;1975;-71
2022/03/29 01:59:08;;;;;;;;;;;;;;;22.25;36.82;95220.09;2043074;29;1434;-73
2022/03/29 02:01:44;;;;;;;;;;;;;;;22.26;37.30;95224.41;2048574;29;1339;-71
2022/03/29 02:02:46;;;;;;;;;;;;;;;22.26;37.16;95211.00;2048535;29;1052;-73
2022/03/29 02:03:48;;;;;;;;;;;;;;;22.27;37.36;95215.31;2049268;29;1073;-73
2022/03/29 02:04:50;;;;;;;;;;;;;;;22.27;37.21;95214.50;2049840;28;1307;-72
2022/03/29 02:05:53;;;;;;;;;;;;;;;22.27;37.26;95212.63;2049864;28;1100;-70
2022/03/29 02:06:56;;;;;;;;;;;;;;;22.27;37.10;95215.31;2049383;29;1155;-73
2022/03/29 02:07:58;;;;;;;;;;;;;;;22.27;37.14;95211.81;2049484;29;1043;-71
2022/03/29 02:09:00;;;;;;;;;;;;;;;22.26;36.87;95208.34;2049953;28;1087;-71
2022/03/29 02:10:02;;;;;;;;;;;;;;;22.26;37.13;95202.16;2048089;29;1594;-71
2022/03/29 02:11:04;;;;;;;;;;;;;;;22.28;37.01;95208.94;2048302;29;1761;-74
2022/03/29 02:12:06;;;;;;;;;;;;;;;22.29;36.95;95204.41;2044026;29;1584;-74
2022/03/29 02:13:11;;;;;;;;;;;;;;;22.28;37.40;95197.41;2049862;28;1004;-71
2022/03/29 02:14:12;;;;;;;;;;;;;;;22.30;37.11;95200.69;2049930;28;1116;-71
2022/03/29 02:15:14;;;;;;;;;;;;;;;22.31;37.03;95199.66;2049111;29;1827;-69
2022/03/29 02:16:16;;;;;;;;;;;;;;;22.30;37.05;95195.31;2049548;29;1020;-73
2022/03/29 02:17:18;;;;;;;;;;;;;;;22.31;37.17;95199.66;2042821;28;1338;-72
2022/03/29 02:18:20;;;;;;;;;;;;;;;22.30;37.50;95189.97;2041271;29;1907;-70
2022/03/29 02:19:21;;;;;;;;;;;;;;;22.31;37.13;95191.63;2041223;29;1112;-73
2022/03/29 02:20:24;;;;;;;;;;;;;;;22.30;36.95;95192.66;2041350;29;1495;-72
2022/03/29 02:21:25;;;;;;;;;;;;;;;22.30;37.27;95190.78;2041964;29;1493;-71
2022/03/29 02:22:27;;;;;;;;;;;;;;;22.31;37.25;95189.78;2044552;29;1100;-73
2022/03/29 02:23:28;;;;;;;;;;;;;;;22.31;37.21;95191.63;2048922;29;1005;-73
2022/03/29 02:24:30;;;;;;;;;;;;;;;22.31;37.15;95187.09;2040356;29;1551;-72
2022/03/29 02:25:32;;;;;;;;;;;;;;;22.31;37.23;95183.59;2048242;29;1105;-71
2022/03/29 02:26:33;;;;;;;;;;;;;;;22.30;37.00;95184.63;2049889;28;995;-73
2022/03/29 02:27:35;;;;;;;;;;;;;;;22.31;37.40;95183.59;2049941;29;1046;-73
2022/03/29 02:28:36;;;;;;;;;;;;;;;22.30;37.46;95188.09;2049678;28;1032;-72
2022/03/29 02:29:38;;;;;;;;;;;;;;;22.29;37.49;95183.00;2050056;28;1078;-73
2022/03/29 02:30:39;;;;;;;;;;;;;;;22.31;37.71;95180.94;2047679;29;1437;-69
2022/03/29 02:31:41;;;;;;;;;;;;;;;22.31;37.56;95186.28;2048715;28;1492;-74
2022/03/29 02:32:43;;;;;;;;;;;;;;;22.31;37.33;95186.28;2056577;28;997;-72
2022/03/29 02:33:45;;;;;;;;;;;;;;;22.30;37.23;95180.06;2044179;28;1043;-72
2022/03/29 02:34:46;;;;;;;;;;;;;;;22.31;37.46;95186.28;2048814;29;1810;-74
2022/03/29 02:35:48;;;;;;;;;;;;;;;22.31;37.69;95180.94;2049753;28;1089;-73
2022/03/29 02:36:50;;;;;;;;;;;;;;;22.31;37.93;95179.06;2048842;29;1125;-68
2022/03/29 02:37:52;;;;;;;;;;;;;;;22.31;37.04;95189.78;2040732;29;1638;-68
2022/03/29 02:38:54;;;;;;;;;;;;;;;22.30;37.75;95181.94;2048907;29;1915;-71
2022/03/29 02:39:55;;;;;;;;;;;;;;;22.32;37.98;95182.56;2040884;29;989;-70
2022/03/29 02:40:58;;;;;;;;;;;;;;;22.32;37.81;95182.56;2048407;29;1807;-72
2022/03/29 02:41:59;;;;;;;;;;;;;;;22.31;38.11;95188.97;2041639;29;1048;-73
2022/03/29 02:43:01;;;;;;;;;;;;;;;22.31;37.56;95183.59;2040961;29;1243;-71
2022/03/29 02:44:03;;;;;;;;;;;;;;;22.31;37.64;95192.44;2045951;29;1531;-73
2022/03/29 02:45:04;;;;;;;;;;;;;;;22.31;37.53;95186.28;2044801;28;1164;-72
2022/03/29 02:46:07;;;;;;;;;;;;;;;22.31;37.72;95180.94;2048186;28;1581;-72
2022/03/29 02:47:09;;;;;;;;;;;;;;;22.31;37.74;95188.97;2049208;28;995;-72
2022/03/29 02:48:11;;;;;;;;;;;;;;;22.30;37.73;95185.44;2049562;28;1651;-73
2022/03/29 02:49:13;;;;;;;;;;;;;;;22.30;37.62;95180.06;2048498;29;1675;-71
2022/03/29 02:50:15;;;;;;;;;;;;;;;22.32;37.24;95179.88;2040622;29;1539;-73
2022/03/29 02:51:17;;;;;;;;;;;;;;;22.32;37.54;95183.38;2047050;29;1508;-73
2022/03/29 02:52:19;;;;;;;;;;;;;;;22.33;38.05;95179.63;2049124;29;1661;-71
2022/03/29 02:53:21;;;;;;;;;;;;;;;22.34;37.57;95183.16;2049453;28;1323;-72
2022/03/29 02:54:22;;;;;;;;;;;;;;;22.33;37.84;95179.63;2048844;29;1363;-72
2022/03/29 02:55:25;;;;;;;;;;;;;;;22.34;37.77;95186.66;2044860;28;1775;-73
2022/03/29 02:56:27;;;;;;;;;;;;;;;22.37;37.45;95177.38;2048939;28;1546;-73
2022/03/29 02:57:30;;;;;;;;;;;;;;;22.36;37.06;95178.38;2048478;29;1641;-72
2022/03/29 02:58:32;;;;;;;;;;;;;;;22.35;37.50;95182.94;2048191;29;1902;-69
2022/03/29 02:59:33;;;;;;;;;;;;;;;22.36;37.32;95178.38;2048889;29;1180;-72
2022/03/29 03:00:35;;;;;;;;;;;;;;;22.38;37.72;95175.50;2047668;29;1728;-73
2022/03/29 03:01:37;;;;;;;;;;;;;;;22.37;37.61;95177.38;2047583;29;1584;-73
2022/03/29 03:02:38;;;;;;;;;;;;;;;22.38;37.92;95180.88;2048779;29;1053;-74
2022/03/29 03:03:40;;;;;;;;;;;;;;;22.38;37.71;95181.69;2048744;29;1503;-75
2022/03/29 03:04:42;;;;;;;;;;;;;;;20.67;28.19;95179.59;2048152;29;2602;-70
2022/03/29 03:05:43;;;;;;;;;;;;;;;19.07;29.20;95178.50;2048839;28;1518;-70
2022/03/29 03:06:45;;;;;;;;;;;;;;;17.64;30.46;95183.91;2044612;28;1089;-69
2022/03/29 03:07:47;;;;;;;;;;;;;;;16.78;30.71;95180.22;2049266;29;921;-70
2022/03/29 03:08:49;;;;;;;;;;;;;;;16.23;31.61;95184.91;2048848;29;1834;-70
2022/03/29 03:09:51;;;;;;;;;;;;;;;15.81;32.17;95188.09;2047837;29;1358;-65
2022/03/29 03:10:52;;;;;;;;;;;;;;;15.85;31.36;95181.44;2048406;29;1448;-67
2022/03/29 03:11:55;;;;;;;;;;;;;;;15.73;31.70;95177.50;2049332;29;1095;-69
2022/03/29 03:12:56;;;;;;;;;;;;;;;15.73;nan;95178.34;2048238;29;1085;-69
2022/03/29 03:13:58;;;;;;;;;;;;;;;15.52;31.86;95179.00;2046551;29;1683;-70
2022/03/29 03:15:00;;;;;;;;;;;;;;;15.55;31.50;95186.59;2048735;29;1711;-69
2022/03/29 03:16:01;;;;;;;;;;;;;;;15.42;31.75;95184.53;2047753;29;1652;-70
2022/03/29 03:17:03;;;;;;;;;;;;;;;15.47;31.44;95183.16;2047419;29;1487;-69
2022/03/29 03:18:12;;;;;;;;;;;;;;;15.38;31.58;95183.22;2044395;28;1292;-69
2022/03/29 03:19:14;;;;;;;;;;;;;;;15.33;31.50;95182.91;2049315;28;1922;-69
2022/03/29 03:20:15;;;;;;;;;;;;;;;15.21;31.65;95184.31;2047551;29;1471;-69
2022/03/29 03:21:17;;;;;;;;;;;;;;;15.14;31.98;95181.53;2048414;29;1166;-69
2022/03/29 03:22:18;;;;;;;;;;;;;;;14.98;32.21;95172.84;2048754;29;1718;-69
2022/03/29 03:23:20;;;;;;;;;;;;;;;14.96;32.11;95179.13;2048404;29;1626;-69
2022/03/29 03:24:21;;;;;;;;;;;;;;;14.88;32.06;95179.19;2048026;28;1564;-65
2022/03/29 03:25:23;;;;;;;;;;;;;;;14.99;32.04;95174.50;2047396;28;1520;-68
2022/03/29 03:26:25;;;;;;;;;;;;;;;14.74;32.15;95172.78;2049053;28;1120;-68
2022/03/29 03:27:26;;;;;;;;;;;;;;;14.55;32.54;95174.97;2048625;28;1514;-69
2022/03/29 03:28:28;;;;;;;;;;;;;;;14.52;32.28;95174.31;2044780;28;1155;-65
2022/03/29 03:29:29;;;;;;;;;;;;;;;14.34;32.73;95171.06;2047476;28;1672;-69
2022/03/29 03:30:33;;;;;;;;;;;;;;;14.37;32.64;95181.28;2047181;28;1456;-68
2022/03/29 03:31:34;;;;;;;;;;;;;;;14.53;32.70;95175.94;2046479;29;1676;-69
2022/03/29 03:32:36;;;;;;;;;;;;;;;14.57;32.57;95171.16;2047671;29;1555;-68
2022/03/29 03:33:38;;;;;;;;;;;;;;;14.53;32.43;95177.78;2048245;28;1015;-69
2022/03/29 03:34:40;;;;;;;;;;;;;;;14.37;32.72;95180.44;2046887;29;1499;-67
2022/03/29 03:35:42;;;;;;;;;;;;;;;14.46;32.75;95177.63;2047113;29;1529;-69
2022/03/29 03:36:43;;;;;;;;;;;;;;;14.35;32.72;95169.25;2047273;28;1532;-69
2022/03/29 03:37:45;;;;;;;;;;;;;;;14.25;32.73;95177.34;2048279;28;1159;-69
2022/03/29 03:38:46;;;;;;;;;;;;;;;14.32;32.87;95170.41;2046606;29;2003;-65
2022/03/29 03:39:48;;;;;;;;;;;;;;;14.48;32.46;95177.44;2043896;29;1217;-71
2022/03/29 03:40:49;;;;;;;;;;;;;;;14.21;33.06;95173.38;2048910;28;1116;-68
2022/03/29 03:41:51;;;;;;;;;;;;;;;14.15;33.38;95171.41;2049050;28;1105;-69
2022/03/29 03:42:53;;;;;;;;;;;;;;;14.06;33.18;95178.53;2048403;29;1546;-69
2022/03/29 03:43:54;;;;;;;;;;;;;;;14.40;33.24;95178.31;2048773;28;1160;-69
2022/03/29 03:44:57;;;;;;;;;;;;;;;14.58;32.83;95182.56;2047554;28;1612;-68
2022/03/29 03:45:59;;;;;;;;;;;;;;;14.65;32.73;95180.88;2048220;29;1002;-68
2022/03/29 03:47:00;;;;;;;;;;;;;;;14.88;32.61;95179.19;2040827;29;1119;-68
2022/03/29 03:48:02;;;;;;;;;;;;;;;15.05;32.65;95179.09;2047759;29;1727;-68
2022/03/29 03:49:04;;;;;;;;;;;;;;;15.15;33.14;95188.47;2047220;28;1529;-68
2022/03/29 03:50:06;;;;;;;;;;;;;;;15.04;34.40;95180.91;2048850;29;1537;-68
2022/03/29 03:51:08;;;;;;;;;;;;;;;15.06;35.96;95180.75;2043738;28;1554;-68
2022/03/29 03:52:09;;;;;;;;;;;;;;;15.11;36.48;95183.72;2049402;28;1066;-67
2022/03/29 03:53:11;;;;;;;;;;;;;;;14.86;37.95;95175.88;2048862;28;1039;-69
2022/03/29 03:54:13;;;;;;;;;;;;;;;14.48;37.37;95185.38;2044362;29;1531;-68
2022/03/29 03:55:15;;;;;;;;;;;;;;;14.51;38.60;95171.81;2037265;29;1144;-67
2022/03/29 03:56:16;;;;;;;;;;;;;;;14.47;39.16;95176.63;2047115;29;1416;-69
2022/03/29 03:57:19;;;;;;;;;;;;;;;14.98;38.59;95181.59;2048545;28;1235;-69
2022/03/29 03:58:20;;;;;;;;;;;;;;;15.83;36.13;95180.78;2047511;28;1234;-63
2022/03/29 03:59:23;;;;;;;;;;;;;;;16.05;36.15;95176.47;2046424;29;1995;-68
2022/03/29 04:00:24;;;;;;;;;;;;;;;15.98;35.99;95186.13;2047606;28;1553;-70
2022/03/29 04:01:27;;;;;;;;;;;;;;;15.70;36.36;95178.69;2038012;28;1529;-65
2022/03/29 04:02:29;;;;;;;;;;;;;;;15.49;36.72;95184.63;2040377;28;1462;-68
2022/03/29 04:03:31;;;;;;;;;;;;;;;15.33;36.78;95188.19;2042308;29;1237;-68
2022/03/29 04:04:32;;;;;;;;;;;;;;;15.35;36.72;95177.44;2039479;29;1056;-65
2022/03/29 04:05:34;;;;;;;;;;;;;;;15.37;36.91;95183.41;2040418;29;1526;-69
2022/03/29 04:06:35;;;;;;;;;;;;;;;15.46;36.57;95176.22;2045136;28;1109;-68
2022/03/29 04:07:37;;;;;;;;;;;;;;;15.52;36.23;95172.88;2045340;28;1743;-70
2022/03/29 04:08:39;;;;;;;;;;;;;;;15.47;36.31;95175.22;2047664;29;1096;-68
2022/03/29 04:09:40;;;;;;;;;;;;;;;15.41;36.61;95174.91;2046918;29;1154;-68
2022/03/29 04:10:42;;;;;;;;;;;;;;;15.34;37.03;95178.47;2046989;29;1639;-68
2022/03/29 04:11:44;;;;;;;;;;;;;;;14.70;38.01;95176.75;2046484;29;1132;-68
2022/03/29 04:12:45;;;;;;;;;;;;;;;14.37;38.01;95175.16;2043675;28;1438;-68
2022/03/29 04:13:47;;;;;;;;;;;;;;;14.06;39.06;95181.19;2047180;29;1514;-67
2022/03/29 04:14:49;;;;;;;;;;;;;;;13.97;39.21;95177.72;2042757;28;1051;-68
2022/03/29 04:15:50;;;;;;;;;;;;;;;13.93;40.16;95175.56;2045706;29;1497;-68
2022/03/29 04:16:52;;;;;;;;;;;;;;;13.98;39.84;95174.06;2048813;28;1016;-65
2022/03/29 04:17:54;;;;;;;;;;;;;;;13.91;39.64;95178.34;2047953;28;1466;-69
2022/03/29 04:18:55;;;;;;;;;;;;;;;14.05;39.58;95177.72;2046898;28;1623;-69
2022/03/29 04:19:58;;;;;;;;;;;;;;;15.09;37.93;95178.56;2047674;28;1907;-69
2022/03/29 04:21:01;;;;;;;;;;;;;;;15.97;36.63;95182.66;2046698;29;1644;-69
2022/03/29 04:22:03;;;;;;;;;;;;;;;16.71;35.15;95168.69;2047890;28;1535;-69
2022/03/29 04:23:04;;;;;;;;;;;;;;;17.28;34.28;95172.50;2046971;29;1515;-69
2022/03/29 04:24:06;;;;;;;;;;;;;;;17.74;33.48;95177.50;2047019;28;1732;-69
2022/03/29 04:25:08;;;;;;;;;;;;;;;18.08;33.03;95168.81;2055659;28;1175;-66
2022/03/29 04:26:10;;;;;;;;;;;;;;;18.37;32.45;95174.97;2056486;28;1132;-68
2022/03/29 04:27:11;;;;;;;;;;;;;;;18.55;32.13;95173.47;2057250;28;821;-69
2022/03/29 04:28:13;;;;;;;;;;;;;;;18.72;31.82;95176.66;2056635;28;901;-69
2022/03/29 04:29:14;;;;;;;;;;;;;;;18.86;31.90;95174.06;2056369;28;1140;-69
2022/03/29 04:30:16;;;;;;;;;;;;;;;18.96;31.59;95172.69;2056703;28;1026;-68
2022/03/29 04:31:18;;;;;;;;;;;;;;;19.06;31.45;95174.16;2056493;28;1032;-69
2022/03/29 04:32:19;;;;;;;;;;;;;;;19.13;31.46;95172.38;2048485;28;1104;-64
2022/03/29 04:33:21;;;;;;;;;;;;;;;19.19;31.37;95174.22;2056286;28;1060;-68
2022/03/29 04:34:23;;;;;;;;;;;;;;;19.26;31.28;95172.41;2056117;28;1079;-64
2022/03/29 04:35:25;;;;;;;;;;;;;;;19.32;31.22;95179.63;2054328;28;1174;-67
2022/03/29 04:36:27;;;;;;;;;;;;;;;19.37;31.20;95184.31;2056315;28;1183;-68
2022/03/29 04:37:28;;;;;;;;;;;;;;;19.40;31.01;95176.75;2056266;28;1183;-69
2022/03/29 04:38:30;;;;;;;;;;;;;;;19.44;31.09;95175.34;2056611;28;1057;-69
2022/03/29 04:39:31;;;;;;;;;;;;;;;19.50;31.11;95180.91;2056809;28;1910;-67
2022/03/29 04:40:33;;;;;;;;;;;;;;;19.54;31.09;95180.31;2057228;28;1639;-69
2022/03/29 04:41:35;;;;;;;;;;;;;;;19.57;31.03;95179.09;2055972;28;1163;-69
2022/03/29 04:43:00;;;;;;;;;;;;;;;19.61;31.07;95175.84;2056814;28;1543;-68
2022/03/29 04:44:02;;;;;;;;;;;;;;;19.65;30.91;95176.25;2057074;28;1026;-69
2022/03/29 04:45:04;;;;;;;;;;;;;;;19.68;30.99;95175.84;2056015;28;987;-69
2022/03/29 04:46:07;;;;;;;;;;;;;;;19.72;30.98;95178.91;2052333;28;1201;-69
2022/03/29 04:47:08;;;;;;;;;;;;;;;19.74;31.00;95174.22;2056635;28;1117;-66
2022/03/29 04:48:11;;;;;;;;;;;;;;;19.77;30.93;95171.13;2057475;28;1032;-69
2022/03/29 04:49:13;;;;;;;;;;;;;;;19.79;30.89;95171.75;2058312;28;1100;-70
2022/03/29 04:50:15;;;;;;;;;;;;;;;19.82;30.76;95166.03;2058190;28;1117;-69
2022/03/29 04:51:17;;;;;;;;;;;;;;;19.83;30.86;95165.84;2058205;28;1184;-69
2022/03/29 04:52:18;;;;;;;;;;;;;;;19.86;30.85;95178.75;2058205;28;1208;-66
2022/03/29 04:53:20;;;;;;;;;;;;;;;19.88;31.03;95173.19;2057405;28;1078;-69
2022/03/29 04:54:21;;;;;;;;;;;;;;;19.89;30.84;95173.00;2058039;28;1352;-68
2022/03/29 04:55:23;;;;;;;;;;;;;;;19.93;30.97;95169.94;2058355;28;969;-69
2022/03/29 04:56:24;;;;;;;;;;;;;;;19.96;31.00;95173.00;2057455;28;1116;-64
2022/03/29 04:57:26;;;;;;;;;;;;;;;19.98;31.00;95180.81;2055049;28;1283;-68
2022/03/29 04:58:28;;;;;;;;;;;;;;;19.99;30.85;95174.44;2058640;28;1168;-70
2022/03/29 04:59:29;;;;;;;;;;;;;;;20.01;30.83;95173.22;2057576;28;1034;-69
2022/03/29 05:00:31;;;;;;;;;;;;;;;20.04;30.79;95182.66;2057129;28;2011;-69
2022/03/29 05:01:33;;;;;;;;;;;;;;;20.05;30.80;95174.44;2058451;28;1172;-69
2022/03/29 05:02:35;;;;;;;;;;;;;;;20.07;30.75;95176.94;2057820;28;1096;-69
2022/03/29 05:03:36;;;;;;;;;;;;;;;20.08;30.98;95174.03;2057634;28;1164;-69
2022/03/29 05:04:38;;;;;;;;;;;;;;;20.10;30.79;95173.84;2058267;28;1018;-69
2022/03/29 05:05:40;;;;;;;;;;;;;;;20.10;31.01;95166.66;2057546;28;1101;-69
2022/03/29 05:06:41;;;;;;;;;;;;;;;20.12;30.84;95174.47;2057524;28;1183;-68
2022/03/29 05:07:43;;;;;;;;;;;;;;;20.14;30.84;95171.59;2053157;28;1136;-69
2022/03/29 05:08:45;;;;;;;;;;;;;;;20.15;30.91;95171.38;2057848;28;1134;-69
2022/03/29 05:09:46;;;;;;;;;;;;;;;20.16;30.92;95173.03;2058315;28;1047;-69
2022/03/29 05:10:48;;;;;;;;;;;;;;;20.18;31.04;95180.84;2058169;28;1039;-69
2022/03/29 05:11:49;;;;;;;;;;;;;;;20.18;31.00;95180.84;2058314;28;1268;-65
2022/03/29 05:12:51;;;;;;;;;;;;;;;20.20;30.97;95184.09;2058141;28;1167;-68
2022/03/29 05:13:53;;;;;;;;;;;;;;;20.21;30.84;95181.25;2058212;28;1119;-68
2022/03/29 05:14:54;;;;;;;;;;;;;;;20.22;30.97;95176.72;2056723;28;995;-69
2022/03/29 05:15:56;;;;;;;;;;;;;;;20.23;30.86;95181.03;2057486;28;1191;-67
2022/03/29 05:16:58;;;;;;;;;;;;;;;20.24;30.83;95170.16;2058017;28;1091;-69
2022/03/29 05:17:59;;;;;;;;;;;;;;;20.24;30.80;95167.47;2058225;28;1202;-68
2022/03/29 05:19:01;;;;;;;;;;;;;;;20.26;30.84;95178.78;2053387;28;977;-68
2022/03/29 05:20:03;;;;;;;;;;;;;;;20.27;31.01;95182.25;2058183;28;1989;-69
2022/03/29 05:21:05;;;;;;;;;;;;;;;20.28;30.87;95171.38;2050977;28;1164;-68
2022/03/29 05:22:06;;;;;;;;;;;;;;;20.28;30.68;95176.72;2049211;29;1616;-69
2022/03/29 05:23:08;;;;;;;;;;;;;;;20.29;30.82;95167.69;2049324;29;1116;-68
2022/03/29 05:24:10;;;;;;;;;;;;;;;20.30;30.82;95172.00;2049480;29;1068;-68
2022/03/29 05:25:13;;;;;;;;;;;;;;;20.31;30.82;95165.63;2050182;28;1091;-68
2022/03/29 05:26:14;;;;;;;;;;;;;;;20.32;30.83;95167.28;2050014;28;1166;-69
2022/03/29 05:27:16;;;;;;;;;;;;;;;20.33;30.82;95170.75;2049540;29;2423;-68
2022/03/29 05:28:17;;;;;;;;;;;;;;;20.34;30.90;95173.25;2041525;29;1256;-69
2022/03/29 05:29:19;;;;;;;;;;;;;;;20.36;30.93;95166.88;2049368;29;1112;-68
2022/03/29 05:30:21;;;;;;;;;;;;;;;20.37;30.88;95166.69;2045712;28;1068;-68
2022/03/29 05:31:23;;;;;;;;;;;;;;;20.38;30.91;95167.53;2050003;28;1091;-68
2022/03/29 05:32:25;;;;;;;;;;;;;;;20.39;30.81;95171.81;2050082;28;1103;-69
2022/03/29 05:33:27;;;;;;;;;;;;;;;20.39;30.84;95172.63;2049631;28;2055;-70